createdAt,value
2024-01-09T00:01:29.884Z,5.42
2024-01-09T00:06:32.862Z,5.43
2024-01-09T00:11:35.754Z,5.47
2024-01-09T00:16:38.723Z,5.50
2024-01-09T00:21:42.200Z,5.48
2024-01-09T00:26:47.334Z,5.47
2024-01-09T00:31:51.028Z,5.46
2024-01-09T00:36:54.137Z,5.53
2024-01-09T00:41:56.967Z,5.55
2024-01-09T00:47:01.763Z,5.54
2024-01-09T00:52:05.752Z,5.57
2024-01-09T00:57:09.116Z,5.55
2024-01-09T01:02:12.297Z,5.59
2024-01-09T01:07:15.844Z,5.57
2024-01-09T01:12:18.645Z,5.54
2024-01-09T01:17:21.601Z,5.57
2024-01-09T01:22:24.554Z,5.53
2024-01-09T01:27:27.951Z,5.52
2024-01-09T01:32:30.994Z,5.50
2024-01-09T01:37:34.742Z,5.51
2024-01-09T01:42:37.755Z,5.45
2024-01-09T01:47:40.846Z,5.45
2024-01-09T01:52:45.849Z,5.44
2024-01-09T01:57:51.842Z,5.40
2024-01-09T02:02:55.831Z,5.44
2024-01-09T02:08:00.299Z,5.44
2024-01-09T02:13:07.593Z,5.42
2024-01-09T02:18:11.523Z,5.44
2024-01-09T02:23:15.299Z,5.45
2024-01-09T02:28:26.824Z,5.45
2024-01-09T02:33:31.352Z,5.44
2024-01-09T02:38:37.548Z,5.44
2024-01-09T02:43:41.636Z,5.45
2024-01-09T02:48:45.418Z,5.35
2024-01-09T02:53:51.526Z,5.33
2024-01-09T02:58:54.742Z,5.26
2024-01-09T03:03:57.619Z,5.27
2024-01-09T03:08:59.983Z,5.26
2024-01-09T03:14:03.528Z,5.25
2024-01-09T03:19:07.101Z,5.25
2024-01-09T03:24:10.854Z,5.28
2024-01-09T03:29:14.697Z,5.31
2024-01-09T03:34:18.083Z,5.30
2024-01-09T03:39:21.063Z,5.33
2024-01-09T03:44:23.739Z,5.31
2024-01-09T03:49:26.416Z,5.30
2024-01-09T03:54:29.460Z,5.30
2024-01-09T03:59:32.407Z,5.29
2024-01-09T04:04:39.387Z,5.30
2024-01-09T04:09:43.061Z,5.28
2024-01-09T04:14:48.449Z,5.30
2024-01-09T04:19:53.394Z,5.32
2024-01-09T04:24:56.652Z,5.27
2024-01-09T04:29:59.994Z,5.31
2024-01-09T04:35:03.024Z,5.28
2024-01-09T04:40:07.462Z,5.28
2024-01-09T04:45:12.456Z,5.31
2024-01-09T04:50:18.344Z,5.32
2024-01-09T04:55:22.828Z,5.29
2024-01-09T05:00:27.293Z,5.26
2024-01-09T05:05:30.487Z,5.25
2024-01-09T05:10:36.538Z,5.23
2024-01-09T05:15:41.410Z,5.23
2024-01-09T05:20:46.879Z,5.19
2024-01-09T05:25:52.305Z,5.17
2024-01-09T05:30:56.922Z,5.18
2024-01-09T05:36:00.715Z,5.19
2024-01-09T05:41:04.332Z,5.23
2024-01-09T05:46:07.516Z,5.21
2024-01-09T05:51:12.925Z,5.22
2024-01-09T05:56:16.943Z,5.25
2024-01-09T06:01:21.530Z,5.26
2024-01-09T06:06:25.022Z,5.27
2024-01-09T06:11:29.317Z,5.29
2024-01-09T06:16:32.145Z,5.34
2024-01-09T06:21:35.652Z,5.34
2024-01-09T06:26:40.208Z,5.32
2024-01-09T06:31:43.565Z,5.32
2024-01-09T06:36:47.595Z,5.29
2024-01-09T06:41:51.993Z,5.24
2024-01-09T06:46:55.605Z,5.23
2024-01-09T06:51:59.417Z,5.14
2024-01-09T06:57:04.582Z,5.09
2024-01-09T07:02:07.967Z,5.08
2024-01-09T07:07:12.916Z,5.14
2024-01-09T07:12:17.989Z,5.14
2024-01-09T07:17:20.802Z,5.09
2024-01-09T07:22:24.470Z,5.04
2024-01-09T07:27:28.433Z,5.07
2024-01-09T07:32:31.343Z,5.12
2024-01-09T07:37:34.534Z,5.11
2024-01-09T07:42:43.496Z,5.13
2024-01-09T07:47:52.540Z,5.21
2024-01-09T07:52:55.536Z,5.23
2024-01-09T07:58:00.917Z,5.31
2024-01-09T08:03:05.597Z,5.27
2024-01-09T08:08:09.198Z,5.29
2024-01-09T08:13:12.689Z,5.26
2024-01-09T08:18:16.948Z,5.30
2024-01-09T08:23:20.152Z,5.37
2024-01-09T08:28:24.887Z,5.43
2024-01-09T08:33:32.601Z,5.43
2024-01-09T08:38:36.064Z,5.45
2024-01-09T08:43:38.722Z,5.52
2024-01-09T08:48:42.818Z,5.53
2024-01-09T08:53:46.815Z,5.61
2024-01-09T08:58:51.755Z,5.73
2024-01-09T09:03:54.782Z,6.01
2024-01-09T09:08:58.041Z,6.05
2024-01-09T09:14:14.703Z,6.19
2024-01-09T09:19:20.200Z,6.37
2024-01-09T09:24:23.256Z,6.34
2024-01-09T09:29:36.242Z,6.33
2024-01-09T09:34:44.797Z,6.44
2024-01-09T09:39:49.281Z,6.43
2024-01-09T09:44:53.606Z,6.33
2024-01-09T09:49:57.615Z,6.33
2024-01-09T09:55:01.881Z,6.32
2024-01-09T10:00:12.161Z,6.47
2024-01-09T10:05:18.032Z,6.58
2024-01-09T10:10:22.214Z,6.58
2024-01-09T10:15:25.270Z,6.84
2024-01-09T10:20:31.655Z,7.59
2024-01-09T10:25:34.524Z,8.19
2024-01-09T10:30:43.986Z,8.23
2024-01-09T10:35:48.019Z,8.21
2024-01-09T10:40:57.074Z,8.17
2024-01-09T10:46:04.165Z,8.18
2024-01-09T10:51:07.840Z,7.89
2024-01-09T10:56:11.005Z,7.95
2024-01-09T11:01:15.061Z,7.83
2024-01-09T11:06:18.687Z,7.79
2024-01-09T11:11:23.836Z,7.83
2024-01-09T11:16:27.646Z,7.73
2024-01-09T11:21:32.137Z,7.70
2024-01-09T11:26:36.642Z,7.76
2024-01-09T11:31:42.052Z,7.78
2024-01-09T11:36:45.238Z,7.66
2024-01-09T11:41:51.643Z,7.47
2024-01-09T11:46:55.076Z,7.41
2024-01-09T11:51:58.764Z,7.40
2024-01-09T11:57:02.182Z,7.35
2024-01-09T12:02:08.675Z,7.30
2024-01-09T12:07:13.955Z,7.34
2024-01-09T12:12:25.004Z,7.36
2024-01-09T12:17:37.940Z,7.31
2024-01-09T12:22:41.189Z,7.21
2024-01-09T12:27:43.886Z,7.13
2024-01-09T12:32:47.384Z,7.21
2024-01-09T12:37:51.802Z,7.26
2024-01-09T12:43:14.188Z,7.20
2024-01-09T12:48:17.366Z,7.33
2024-01-09T12:53:21.695Z,7.42
2024-01-09T12:58:25.827Z,7.51
2024-01-09T13:03:29.808Z,7.50
2024-01-09T13:08:35.951Z,7.60
2024-01-09T13:13:44.397Z,7.74
2024-01-09T13:18:48.975Z,7.82
2024-01-09T13:23:54.081Z,7.72
2024-01-09T13:34:05.665Z,7.81
2024-01-09T13:39:11.411Z,7.85
2024-01-09T13:44:16.580Z,7.82
2024-01-09T13:49:19.513Z,7.82
2024-01-09T13:54:27.077Z,7.75
2024-01-09T13:59:30.584Z,7.72
2024-01-09T14:04:33.930Z,7.76
2024-01-09T14:09:41.360Z,7.76
2024-01-09T14:14:44.617Z,7.82
2024-01-09T14:19:47.961Z,7.91
2024-01-09T14:24:51.409Z,7.97
2024-01-09T14:29:56.092Z,7.95
2024-01-09T14:34:59.854Z,7.96
2024-01-09T14:40:14.349Z,7.93
2024-01-09T14:45:18.964Z,7.97
2024-01-09T14:50:22.939Z,7.85
2024-01-09T14:55:28.810Z,7.92
2024-01-09T15:00:32.446Z,7.97
2024-01-09T15:05:35.582Z,8.01
2024-01-09T15:10:38.607Z,8.00
2024-01-09T15:15:41.615Z,7.93
2024-01-09T15:20:44.526Z,7.87
2024-01-09T15:25:48.205Z,7.94
2024-01-09T15:30:52.525Z,7.95
2024-01-09T15:35:58.906Z,7.91
2024-01-09T15:41:11.018Z,7.89
2024-01-09T15:46:14.128Z,7.89
2024-01-09T15:51:20.622Z,7.91
2024-01-09T15:56:25.887Z,7.98
2024-01-09T16:01:28.840Z,7.93
2024-01-09T16:06:34.600Z,7.99
2024-01-09T16:11:38.983Z,7.89
2024-01-09T16:16:43.389Z,7.82
2024-01-09T16:21:46.904Z,7.72
2024-01-09T16:26:49.810Z,7.70
2024-01-09T16:31:54.012Z,7.65
2024-01-09T16:36:57.052Z,7.64
2024-01-09T16:42:01.412Z,7.57
2024-01-09T16:47:04.917Z,7.50
2024-01-09T16:52:09.114Z,7.43
2024-01-09T16:57:19.829Z,7.38
2024-01-09T17:02:24.198Z,7.30
2024-01-09T17:07:28.641Z,7.24
2024-01-09T17:12:35.546Z,7.21
2024-01-09T17:17:45.707Z,7.14
2024-01-09T17:22:49.403Z,7.05
2024-01-09T17:27:54.156Z,7.04
2024-01-09T17:32:58.413Z,6.99
2024-01-09T17:38:00.939Z,6.98
2024-01-09T17:43:05.223Z,6.97
2024-01-09T17:48:08.726Z,6.92
2024-01-09T17:53:12.218Z,6.86
2024-01-09T17:58:15.139Z,6.82
2024-01-09T18:03:18.820Z,6.75
2024-01-09T18:08:21.895Z,6.70
2024-01-09T18:13:25.295Z,6.62
2024-01-09T18:18:30.523Z,6.57
2024-01-09T18:23:33.322Z,6.56
2024-01-09T18:28:40.556Z,6.53
2024-01-09T18:33:46.712Z,6.51
2024-01-09T18:38:50.058Z,6.46
2024-01-09T18:43:54.846Z,6.41
2024-01-09T18:48:59.870Z,6.40
2024-01-09T18:54:04.302Z,6.33
2024-01-09T18:59:07.913Z,6.26
2024-01-09T19:04:12.346Z,6.30
2024-01-09T19:09:16.811Z,6.23
2024-01-09T19:14:20.957Z,6.28
2024-01-09T19:19:25.943Z,6.25
2024-01-09T19:24:29.612Z,6.21
2024-01-09T19:29:33.297Z,6.22
2024-01-09T19:34:41.471Z,6.20
2024-01-09T19:40:05.115Z,6.19
2024-01-09T19:45:24.936Z,6.18
2024-01-09T19:50:28.787Z,6.19
2024-01-09T19:55:35.557Z,6.21
2024-01-09T20:00:43.039Z,6.18
2024-01-09T20:05:49.522Z,6.09
2024-01-09T20:10:55.091Z,6.11
2024-01-09T20:15:59.299Z,6.04
2024-01-09T20:21:04.969Z,5.99
2024-01-09T20:26:09.074Z,5.86
2024-01-09T20:31:12.086Z,5.87
2024-01-09T20:36:14.978Z,5.85
2024-01-09T20:41:19.067Z,5.79
2024-01-09T20:46:22.363Z,5.71
2024-01-09T20:51:26.993Z,5.62
2024-01-09T20:56:29.564Z,5.56
2024-01-09T21:01:36.469Z,5.58
2024-01-09T21:06:40.573Z,5.53
2024-01-09T21:11:46.494Z,5.66
2024-01-09T21:16:49.329Z,5.67
2024-01-09T21:21:52.037Z,5.76
2024-01-09T21:26:55.263Z,5.85
2024-01-09T21:31:57.772Z,5.87
2024-01-09T21:37:00.300Z,5.86
2024-01-09T21:42:03.103Z,5.95
2024-01-09T21:47:07.334Z,5.99
2024-01-09T21:52:13.341Z,6.02
2024-01-09T21:57:16.581Z,6.03
2024-01-09T22:02:27.653Z,6.06
2024-01-09T22:07:30.646Z,6.05
2024-01-09T22:12:34.733Z,6.02
2024-01-09T22:17:38.766Z,6.02
2024-01-09T22:22:43.109Z,6.03
2024-01-09T22:27:46.114Z,6.09
2024-01-09T22:32:49.828Z,6.08
2024-01-09T22:37:53.057Z,6.15
2024-01-09T22:42:57.713Z,6.14
2024-01-09T22:48:04.047Z,6.13
2024-01-09T22:53:11.412Z,6.12
2024-01-09T22:58:15.804Z,6.12
2024-01-09T23:03:20.356Z,6.15
2024-01-09T23:08:24.456Z,6.17
2024-01-09T23:13:28.391Z,6.13
2024-01-09T23:18:32.385Z,6.06
2024-01-09T23:23:36.020Z,6.11
2024-01-09T23:28:40.141Z,6.08
2024-01-09T23:33:43.689Z,6.11
2024-01-09T23:38:47.332Z,6.07
2024-01-09T23:43:50.953Z,6.05
2024-01-09T23:48:54.085Z,6.05
2024-01-09T23:53:56.991Z,6.05
2024-01-09T23:59:00.958Z,6.04
